TISTTNCM

Guest
Details From TIST - St Thomas - Cyril E King
To TNCM - St Maarten - Princess Juliana Intl
Flight Number -
Tags generated
Created
Modified
Stats Distance 108 nm / 200 km
Max Altitude 9,600 ft / 2,926 m
Waypoints 3
Social Downloads 2
Likes 0
Share VATSIM

Download

Looking for another format? Having issues loading an existing format? Contact us
Advertisement - Login to hide

Notes

Basic altitude profile: - Ascent Rate: 1800ft/min - Ascent Speed: 270kts - Cruise Altitude: 250000ft - Cruise Speed: 300kts - Descent Rate: 1500ft/min - Descent Speed: 240kts

Route

TIST JUICE TNCM

ID Type Via Altitude Latitude Longitude Leg Dist Tot Dist Heading (true) Name
O TIST APT - 0 ft / 0 m 18.33730˚ -64.97334˚ - 0 nm - St Thomas - Cyril E King
JUICE FIX - 9,600 ft / 2,926 m 18.13094˚ -63.66667˚ 75 nm 75 nm 99° / 100° -
O TNCM APT - 0 ft / 0 m 18.04089˚ -63.10897˚ 32 nm 107 nm 100° / 100° St Maarten - Princess Juliana Intl

Altitude Profile

Advertisement - Login to hide

TIST

Details ICAO TIST (STT)
Name St Thomas - Cyril E King
Region USA (U.S. Virgin Islands)
Timezone Unknown (UTC+0.0)
Stats Elevation 23 ft / 7 m (AMSL)
Location 18.337300° -64.973344°
Runways 1
Magnetic Variation 13.636° W

METAR

TIST 171453Z 04014G22KT 10SM FEW029 FEW037 SCT050 28/23 A3009

Decode

TAF

TAF TIST 171141Z 1712/1812 04015KT P6SM FEW025 SCT035 FM171400 07017G24KT P6SM VCSH SCT025 SCT050 FM172300 05013KT P6SM VCSH SCT022 SCT040

Decode

Departure Runways

ID Width Length Bearing (true) Bearing (mag) Surface Threshold Offset Overrun Length
10 151 ft / 46 m 6,992 ft / 2,131 m 87.44° 101.08° Asphalt 0 ft / 0 m 200 ft / 61 m
28 151 ft / 46 m 6,992 ft / 2,131 m 267.44° 281.08° Asphalt 2,300 ft / 701 m 200 ft / 61 m

TNCM

Details ICAO TNCM (SXM)
Name St Maarten - Princess Juliana Intl
Region Caribbean Netherlands, Aruba, Curaçao, Sint Maarten
Timezone Unknown (UTC+0.0)
Stats Elevation 12 ft / 4 m (AMSL)
Location 18.040889° -63.108974°
Runways 1
Magnetic Variation 14.325° W

METAR

TNCM 171530Z 06010KT 030V090 9999 VCSH BKN012TCU 26/25 Q1018 A3007 TEMPO SHRA RMK VCSH NE/ TCU N/W

Decode

TAF

TAF TAF AMD TNCM 171404Z 1714/1812 06015G22KT P6SM VCSH SCT018 SCT035 TEMPO 1714/1716 -SHRA BKN014 FM172300 07012KT P6SM SCT022

Decode

Destination Runways

ID Width Length Bearing (true) Bearing (mag) Surface Threshold Offset Overrun Length
10 148 ft / 45 m 7,464 ft / 2,275 m 81.43° 95.76° Asphalt 0 ft / 0 m 151 ft / 46 m
28 148 ft / 45 m 7,464 ft / 2,275 m 261.44° 275.77° Asphalt 397 ft / 121 m 0 ft / 0 m

Popular Alternatives